createdAt,value
2022-08-12T00:02:43.657Z,2.90
2022-08-12T00:05:30.206Z,3.00
2022-08-12T00:08:16.970Z,3.05
2022-08-12T00:11:14.287Z,2.97
2022-08-12T00:13:59.602Z,3.40
2022-08-12T00:16:48.513Z,2.78
2022-08-12T00:19:34.054Z,2.70
2022-08-12T00:22:19.724Z,2.88
2022-08-12T00:25:05.791Z,3.40
2022-08-12T00:27:51.432Z,3.38
2022-08-12T00:30:36.571Z,3.88
2022-08-12T00:33:22.224Z,3.63
2022-08-12T00:36:14.894Z,3.65
2022-08-12T00:39:17.242Z,3.22
2022-08-12T00:42:03.109Z,3.33
2022-08-12T00:44:30.081Z,3.42
2022-08-12T00:47:01.863Z,3.00
2022-08-12T00:49:29.671Z,2.90
2022-08-12T00:52:07.684Z,3.28
2022-08-12T00:54:39.731Z,3.35
2022-08-12T00:57:17.612Z,3.20
2022-08-12T00:59:51.287Z,3.40
2022-08-12T01:02:32.503Z,3.08
2022-08-12T01:05:18.663Z,3.17
2022-08-12T01:08:04.794Z,2.88
2022-08-12T01:10:51.152Z,2.75
2022-08-12T01:13:19.766Z,3.25
2022-08-12T01:15:51.424Z,3.22
2022-08-12T01:18:27.301Z,3.30
2022-08-12T01:21:20.017Z,3.10
2022-08-12T01:24:29.671Z,2.80
2022-08-12T01:26:59.853Z,3.08
2022-08-12T01:29:32.962Z,2.70
2022-08-12T01:32:05.156Z,3.35
2022-08-12T01:34:37.443Z,3.38
2022-08-12T01:37:07.587Z,3.13
2022-08-12T01:40:36.919Z,2.70
2022-08-12T01:42:39.939Z,2.60
2022-08-12T01:45:07.163Z,3.33
2022-08-12T01:47:54.581Z,2.83
2022-08-12T01:50:47.557Z,3.17
2022-08-12T01:53:16.018Z,3.17
2022-08-12T01:55:46.341Z,2.70
2022-08-12T01:58:51.374Z,3.33
2022-08-12T02:01:19.554Z,2.95
2022-08-12T02:04:22.541Z,2.85
2022-08-12T02:07:16.404Z,3.15
2022-08-12T02:10:10.639Z,3.20
2022-08-12T02:13:06.091Z,3.28
2022-08-12T02:15:48.096Z,2.78
2022-08-12T02:18:42.013Z,2.85
2022-08-12T02:21:20.692Z,3.13
2022-08-12T02:23:48.057Z,2.58
2022-08-12T02:26:15.970Z,2.97
2022-08-12T02:28:42.636Z,2.28
2022-08-12T02:31:09.648Z,2.85
2022-08-12T02:33:37.777Z,3.05
2022-08-12T02:36:05.200Z,2.60
2022-08-12T02:38:31.866Z,3.20
2022-08-12T02:41:02.091Z,2.50
2022-08-12T02:43:44.714Z,2.78
2022-08-12T02:46:14.808Z,2.80
2022-08-12T02:48:41.631Z,2.50
2022-08-12T02:51:10.938Z,2.60
2022-08-12T02:53:38.142Z,3.05
2022-08-12T02:56:05.661Z,2.42
2022-08-12T02:58:33.698Z,2.90
2022-08-12T03:01:04.451Z,3.00
2022-08-12T03:03:32.910Z,2.65
2022-08-12T03:06:04.557Z,2.80
2022-08-12T03:08:36.268Z,2.28
2022-08-12T03:11:27.614Z,2.53
2022-08-12T03:13:58.015Z,2.50
2022-08-12T03:16:26.847Z,2.60
2022-08-12T03:18:54.549Z,3.03
2022-08-12T03:22:03.841Z,2.67
2022-08-12T03:24:09.525Z,2.90
2022-08-12T03:26:37.031Z,2.85
2022-08-12T03:29:06.598Z,2.58
2022-08-12T03:31:33.805Z,2.47
2022-08-12T03:34:08.279Z,2.67
2022-08-12T03:36:36.667Z,2.45
2022-08-12T03:39:16.226Z,2.80
2022-08-12T03:41:55.194Z,2.47
2022-08-12T03:45:08.442Z,2.90
2022-08-12T03:48:04.420Z,3.05
2022-08-12T03:50:49.806Z,2.35
2022-08-12T03:53:43.503Z,3.25
2022-08-12T03:56:28.635Z,3.33
2022-08-12T03:59:14.327Z,2.78
2022-08-12T04:01:41.367Z,2.47
2022-08-12T04:04:11.009Z,2.85
2022-08-12T04:06:42.251Z,2.80
2022-08-12T04:09:15.545Z,3.00
2022-08-12T04:12:02.424Z,3.28
2022-08-12T04:14:28.955Z,2.60
2022-08-12T04:16:57.099Z,3.17
2022-08-12T04:19:25.093Z,3.75
2022-08-12T04:22:02.457Z,3.22
2022-08-12T04:24:31.597Z,2.70
2022-08-12T04:26:58.155Z,2.92
2022-08-12T04:30:21.253Z,3.20
2022-08-12T04:32:13.884Z,3.15
2022-08-12T04:34:42.241Z,2.58
2022-08-12T04:37:08.856Z,3.15
2022-08-12T04:39:35.731Z,3.03
2022-08-12T04:42:02.315Z,3.03
2022-08-12T04:44:28.828Z,2.70
2022-08-12T04:46:55.981Z,2.80
2022-08-12T04:49:24.168Z,2.90
2022-08-12T04:51:55.214Z,2.65
2022-08-12T04:54:26.608Z,2.80
2022-08-12T04:57:04.165Z,2.92
2022-08-12T04:59:47.864Z,3.03
2022-08-12T05:02:22.802Z,2.55
2022-08-12T05:04:51.718Z,2.95
2022-08-12T05:07:19.377Z,2.80
2022-08-12T05:09:59.058Z,2.45
2022-08-12T05:12:34.607Z,2.80
2022-08-12T05:15:01.723Z,3.15
2022-08-12T05:17:28.570Z,2.90
2022-08-12T05:19:57.166Z,3.20
2022-08-12T05:22:27.594Z,2.53
2022-08-12T05:24:54.436Z,2.58
2022-08-12T05:27:22.925Z,2.78
2022-08-12T05:30:07.638Z,2.70
2022-08-12T05:32:36.604Z,2.92
2022-08-12T05:35:06.635Z,2.63
2022-08-12T05:37:34.868Z,2.85
2022-08-12T05:40:06.881Z,2.83
2022-08-12T05:42:36.824Z,2.42
2022-08-12T05:45:03.768Z,2.33
2022-08-12T05:47:40.698Z,2.88
2022-08-12T05:50:16.942Z,2.28
2022-08-12T05:52:44.021Z,2.25
2022-08-12T05:55:11.711Z,2.30
2022-08-12T05:57:39.047Z,2.58
2022-08-12T06:00:06.708Z,2.50
2022-08-12T06:02:35.049Z,2.10
2022-08-12T06:05:02.579Z,2.25
2022-08-12T06:07:59.255Z,2.33
2022-08-12T06:10:17.711Z,2.15
2022-08-12T06:13:00.518Z,2.72
2022-08-12T06:15:27.161Z,2.63
2022-08-12T06:17:53.824Z,2.47
2022-08-12T06:20:25.728Z,2.70
2022-08-12T06:22:56.904Z,2.58
2022-08-12T06:25:26.924Z,2.65
2022-08-12T06:28:07.367Z,2.33
2022-08-12T06:30:38.982Z,2.10
2022-08-12T06:33:24.917Z,2.08
2022-08-12T06:35:57.765Z,2.50
2022-08-12T06:38:27.244Z,2.20
2022-08-12T06:41:14.328Z,2.75
2022-08-12T06:44:07.015Z,2.80
2022-08-12T06:46:29.797Z,2.90
2022-08-12T06:48:59.219Z,2.15
2022-08-12T06:51:28.605Z,2.72
2022-08-12T06:53:55.963Z,2.17
2022-08-12T06:56:39.896Z,2.45
2022-08-12T06:59:11.638Z,2.05
2022-08-12T07:01:38.746Z,2.30
2022-08-12T07:04:26.496Z,2.60
2022-08-12T07:06:51.844Z,1.92
2022-08-12T07:10:04.804Z,1.90
2022-08-12T07:12:04.981Z,2.08
2022-08-12T07:14:31.678Z,1.52
2022-08-12T07:17:02.227Z,1.40
2022-08-12T07:19:40.448Z,1.13
2022-08-12T07:22:13.426Z,1.10
2022-08-12T07:24:39.979Z,1.52
2022-08-12T07:27:06.525Z,1.27
2022-08-12T07:30:03.405Z,1.05
2022-08-12T07:32:24.425Z,1.38
2022-08-12T07:37:18.909Z,1.42
2022-08-12T07:39:50.866Z,1.42
2022-08-12T07:44:53.418Z,1.50
2022-08-12T07:47:20.015Z,1.17
2022-08-12T07:50:05.327Z,1.45
2022-08-12T07:52:44.019Z,1.35
2022-08-12T07:55:11.752Z,1.00
2022-08-12T07:57:55.936Z,1.20
2022-08-12T08:00:22.742Z,1.13
2022-08-12T08:02:49.369Z,1.17
2022-08-12T08:05:16.243Z,0.88
2022-08-12T08:07:42.790Z,1.02
2022-08-12T08:10:11.557Z,1.23
2022-08-12T08:12:58.727Z,1.00
2022-08-12T08:15:51.284Z,1.40
2022-08-12T08:18:26.776Z,1.25
2022-08-12T08:20:54.899Z,1.10
2022-08-12T08:23:21.405Z,1.02
2022-08-12T08:25:48.336Z,1.23
2022-08-12T08:28:18.797Z,1.23
2022-08-12T08:30:47.836Z,1.33
2022-08-12T08:33:22.835Z,1.33
2022-08-12T08:35:54.616Z,1.25
2022-08-12T08:38:32.839Z,1.00
2022-08-12T08:42:15.456Z,1.13
2022-08-12T08:44:11.372Z,1.05
2022-08-12T08:46:41.172Z,0.90
2022-08-12T08:49:08.489Z,1.10
2022-08-12T08:51:35.361Z,1.23
2022-08-12T08:54:01.933Z,1.15
2022-08-12T08:56:31.388Z,1.10
2022-08-12T08:58:58.024Z,1.27
2022-08-12T09:01:25.277Z,0.93
2022-08-12T09:05:09.771Z,1.10
2022-08-12T09:06:53.673Z,1.08
2022-08-12T09:09:23.889Z,1.08
2022-08-12T09:12:11.672Z,1.02
2022-08-12T09:14:46.952Z,1.10
2022-08-12T09:17:21.020Z,1.20
2022-08-12T09:19:57.295Z,0.95
2022-08-12T09:22:28.427Z,1.30
2022-08-12T09:24:55.165Z,1.08
2022-08-12T09:27:25.771Z,1.10
2022-08-12T09:30:16.086Z,0.80
2022-08-12T09:33:04.881Z,0.93
2022-08-12T09:35:42.876Z,1.00
2022-08-12T09:38:28.522Z,0.90
2022-08-12T09:42:07.252Z,1.23
2022-08-12T09:44:05.995Z,1.02
2022-08-12T09:46:34.686Z,0.98
2022-08-12T09:49:04.219Z,0.60
2022-08-12T09:51:43.907Z,0.95
2022-08-12T09:54:32.826Z,1.00
2022-08-12T09:58:46.213Z,0.90
2022-08-12T10:00:14.575Z,0.70
2022-08-12T10:02:59.114Z,0.90
2022-08-12T10:06:26.238Z,0.90
2022-08-12T10:08:15.532Z,0.73
2022-08-12T10:11:06.816Z,0.73
2022-08-12T10:13:42.454Z,0.90
2022-08-12T10:16:18.610Z,1.05
2022-08-12T10:18:58.048Z,0.93
2022-08-12T10:21:36.016Z,0.88
2022-08-12T10:24:11.738Z,0.85
2022-08-12T10:26:58.947Z,0.70
2022-08-12T10:30:03.876Z,0.80
2022-08-12T10:32:45.464Z,0.80
2022-08-12T10:35:15.825Z,0.90
2022-08-12T10:38:39.021Z,0.63
2022-08-12T10:40:33.405Z,0.97
2022-08-12T10:43:19.970Z,0.60
2022-08-12T10:45:49.514Z,0.68
2022-08-12T10:48:23.092Z,0.70
2022-08-12T10:51:51.543Z,1.17
2022-08-12T10:54:00.902Z,0.85
2022-08-12T10:56:34.850Z,0.90
2022-08-12T10:59:10.487Z,0.88
2022-08-12T11:04:31.665Z,1.00
2022-08-12T11:04:41.405Z,0.90
2022-08-12T11:08:34.233Z,1.10
2022-08-12T11:10:02.574Z,0.60
2022-08-12T11:12:55.549Z,0.70
2022-08-12T11:15:24.175Z,0.75
2022-08-12T11:18:03.059Z,0.82
2022-08-12T11:20:31.142Z,0.90
2022-08-12T11:22:59.722Z,0.85
2022-08-12T11:25:55.662Z,1.02
2022-08-12T11:28:14.923Z,0.80
2022-08-12T11:30:43.196Z,0.70
2022-08-12T11:33:12.106Z,0.65
2022-08-12T11:35:53.117Z,0.90
2022-08-12T11:38:22.877Z,0.88
2022-08-12T11:40:50.161Z,0.80
2022-08-12T11:43:19.720Z,0.80
2022-08-12T11:45:47.034Z,0.82
2022-08-12T11:48:15.352Z,0.75
2022-08-12T11:50:44.868Z,0.80
2022-08-12T11:53:58.104Z,0.90
2022-08-12T11:55:57.906Z,0.90
2022-08-12T11:59:28.586Z,1.00
2022-08-12T12:03:57.547Z,0.70
2022-08-12T12:06:24.979Z,0.65
2022-08-12T12:08:53.799Z,1.08
2022-08-12T12:11:21.824Z,0.90
2022-08-12T12:14:08.743Z,0.90
2022-08-12T12:16:39.740Z,0.80
2022-08-12T12:19:10.244Z,0.73
2022-08-12T12:21:46.913Z,0.70
2022-08-12T12:24:21.108Z,0.63
2022-08-12T12:27:00.160Z,0.70
2022-08-12T12:30:19.682Z,0.75
2022-08-12T12:32:15.112Z,0.80
2022-08-12T12:35:14.312Z,0.70
2022-08-12T12:38:03.425Z,0.90
2022-08-12T12:40:15.348Z,0.82
2022-08-12T12:42:55.282Z,0.68
2022-08-12T12:45:26.049Z,0.77
2022-08-12T12:47:56.903Z,0.90
2022-08-12T12:50:35.107Z,1.00
2022-08-12T12:53:03.617Z,0.82
2022-08-12T12:55:35.578Z,0.70
2022-08-12T12:58:04.758Z,0.70
2022-08-12T13:00:32.804Z,0.67
2022-08-12T13:03:00.100Z,1.15
2022-08-12T13:05:42.656Z,0.70
2022-08-12T13:08:28.485Z,0.70
2022-08-12T13:11:04.268Z,0.77
2022-08-12T13:14:09.922Z,0.93
2022-08-12T13:16:22.954Z,0.75
2022-08-12T13:18:51.171Z,0.77
2022-08-12T13:21:33.378Z,0.75
2022-08-12T13:24:10.124Z,0.80
2022-08-12T13:26:40.228Z,1.00
2022-08-12T13:29:11.191Z,0.88
2022-08-12T13:32:17.280Z,0.80
2022-08-12T13:34:28.568Z,0.90
2022-08-12T13:37:04.406Z,1.00
2022-08-12T13:39:35.826Z,0.80
2022-08-12T13:42:02.407Z,1.15
2022-08-12T13:44:28.936Z,1.00
2022-08-12T13:46:58.475Z,1.15
2022-08-12T13:49:54.486Z,0.90
2022-08-12T13:52:15.352Z,1.00
2022-08-12T13:54:41.899Z,0.75
2022-08-12T13:57:11.053Z,0.85
2022-08-12T13:59:48.228Z,0.90
2022-08-12T14:02:15.897Z,0.80
2022-08-12T14:04:45.485Z,1.10
2022-08-12T14:07:23.253Z,0.85
2022-08-12T14:10:11.356Z,0.68
2022-08-12T14:12:40.163Z,0.98
2022-08-12T14:15:21.522Z,0.90
2022-08-12T14:18:14.925Z,1.02
2022-08-12T14:20:43.778Z,1.10
2022-08-12T14:24:05.659Z,0.90
2022-08-12T14:26:05.250Z,1.00
2022-08-12T14:28:34.841Z,0.90
2022-08-12T14:31:18.231Z,0.95
2022-08-12T14:33:50.140Z,1.00
2022-08-12T14:36:25.403Z,0.73
2022-08-12T14:38:54.271Z,0.80
2022-08-12T14:41:36.610Z,0.75
2022-08-12T14:44:06.336Z,0.90
2022-08-12T14:46:55.751Z,1.23
2022-08-12T14:50:34.391Z,1.00
2022-08-12T14:53:42.387Z,0.77
2022-08-12T14:57:56.650Z,0.90
2022-08-12T15:00:50.738Z,0.70
2022-08-12T15:03:20.513Z,0.73
2022-08-12T15:06:05.380Z,0.77
2022-08-12T15:08:38.905Z,1.00
2022-08-12T15:11:14.291Z,0.60
2022-08-12T15:13:45.994Z,0.60
2022-08-12T15:16:13.536Z,0.60
2022-08-12T15:18:55.264Z,0.80
2022-08-12T15:21:26.114Z,0.73
2022-08-12T15:24:12.666Z,0.98
2022-08-12T15:26:40.955Z,0.73
2022-08-12T15:29:07.671Z,0.82
2022-08-12T15:32:02.022Z,1.02
2022-08-12T15:34:23.915Z,0.80
2022-08-12T15:36:55.083Z,0.90
2022-08-12T15:39:22.228Z,0.70
2022-08-12T15:41:50.537Z,1.00
2022-08-12T15:44:38.535Z,1.00
2022-08-12T15:47:04.592Z,0.90
2022-08-12T15:49:54.199Z,0.90
2022-08-12T15:52:27.378Z,0.93
2022-08-12T15:54:54.623Z,0.90
2022-08-12T15:57:26.406Z,0.90
2022-08-12T16:00:07.020Z,1.25
2022-08-12T16:02:47.409Z,1.05
2022-08-12T16:06:11.458Z,1.00
2022-08-12T16:08:17.107Z,0.98
2022-08-12T16:10:45.315Z,0.88
2022-08-12T16:13:14.037Z,0.90
2022-08-12T16:18:31.294Z,0.80
2022-08-12T16:20:58.160Z,0.90
2022-08-12T16:23:36.514Z,0.93
2022-08-12T16:26:14.426Z,0.70
2022-08-12T16:28:41.923Z,0.90
2022-08-12T16:31:14.468Z,0.80
2022-08-12T16:34:00.672Z,0.80
2022-08-12T16:36:30.128Z,0.90
2022-08-12T16:38:57.172Z,0.88
2022-08-12T16:41:24.069Z,1.10
2022-08-12T16:43:52.983Z,0.98
2022-08-12T16:46:31.997Z,0.88
2022-08-12T16:48:59.741Z,0.75
2022-08-12T16:51:40.433Z,0.88
2022-08-12T16:54:14.295Z,1.08
2022-08-12T16:56:55.191Z,0.95
2022-08-12T16:59:31.048Z,0.43
2022-08-12T17:02:33.937Z,0.52
2022-08-12T17:05:03.022Z,0.47
2022-08-12T17:07:37.143Z,0.73
2022-08-12T17:10:12.049Z,0.70
2022-08-12T17:12:38.839Z,0.60
2022-08-12T17:15:50.346Z,0.70
2022-08-12T17:18:38.768Z,0.60
2022-08-12T17:20:46.592Z,0.50
2022-08-12T17:23:19.351Z,0.60
2022-08-12T17:25:52.139Z,0.50
2022-08-12T17:28:21.278Z,1.00
2022-08-12T17:30:59.465Z,0.50
2022-08-12T17:33:27.275Z,0.30
2022-08-12T17:35:58.500Z,0.55
2022-08-12T17:38:25.166Z,0.50
2022-08-12T17:40:51.871Z,0.50
2022-08-12T17:43:56.566Z,0.52
2022-08-12T17:46:12.582Z,0.52
2022-08-12T17:48:55.401Z,0.30
2022-08-12T17:51:24.528Z,0.47
2022-08-12T17:54:10.386Z,0.40
2022-08-12T17:56:39.220Z,0.45
2022-08-12T17:59:09.727Z,0.40
2022-08-12T18:01:43.335Z,0.50
2022-08-12T18:04:23.421Z,0.52
2022-08-12T18:06:56.992Z,0.40
2022-08-12T18:09:31.821Z,0.60
2022-08-12T18:12:24.659Z,0.55
2022-08-12T18:15:00.759Z,0.30
2022-08-12T18:17:28.782Z,0.50
2022-08-12T18:20:04.952Z,0.40
2022-08-12T18:22:35.637Z,0.40
2022-08-12T18:25:06.315Z,0.30
2022-08-12T18:30:20.932Z,0.63
2022-08-12T18:33:03.808Z,0.65
2022-08-12T18:35:47.586Z,0.60
2022-08-12T18:38:21.123Z,0.45
2022-08-12T18:41:10.126Z,0.50
2022-08-12T18:43:59.488Z,0.50
2022-08-12T18:46:35.881Z,0.50
2022-08-12T18:49:17.784Z,0.40
2022-08-12T18:51:55.514Z,0.57
2022-08-12T18:54:35.301Z,0.40
2022-08-12T18:57:04.980Z,0.45
2022-08-12T19:00:01.334Z,0.40
2022-08-12T19:02:23.251Z,0.40
2022-08-12T19:07:22.198Z,0.32
2022-08-12T19:09:57.950Z,0.30
2022-08-12T19:12:57.264Z,0.35
2022-08-12T19:15:26.228Z,0.68
2022-08-12T19:18:00.760Z,0.20
2022-08-12T19:20:30.657Z,0.28
2022-08-12T19:22:59.883Z,0.45
2022-08-12T19:26:01.207Z,0.32
2022-08-12T19:28:29.519Z,0.32
2022-08-12T19:31:15.567Z,0.30
2022-08-12T19:34:00.924Z,0.25
2022-08-12T19:36:31.739Z,0.30
2022-08-12T19:38:59.756Z,0.52
2022-08-12T19:41:34.436Z,0.50
2022-08-12T19:44:16.719Z,0.25
2022-08-12T19:46:51.952Z,0.30
2022-08-12T19:49:20.426Z,0.28
2022-08-12T19:51:51.829Z,0.20
2022-08-12T19:54:22.725Z,0.20
2022-08-12T19:56:51.572Z,0.40
2022-08-12T19:59:43.551Z,0.28
2022-08-12T20:02:41.421Z,0.40
2022-08-12T20:06:05.802Z,0.20
2022-08-12T20:07:59.406Z,0.47
2022-08-12T20:13:18.556Z,0.30
2022-08-12T20:15:51.126Z,0.20
2022-08-12T20:18:44.304Z,0.20
2022-08-12T20:21:16.156Z,0.35
2022-08-12T20:23:59.611Z,0.30
2022-08-12T20:26:27.872Z,0.50
2022-08-12T20:28:55.452Z,0.20
2022-08-12T20:31:22.008Z,0.35
2022-08-12T20:33:56.386Z,0.40
2022-08-12T20:36:40.843Z,0.17
2022-08-12T20:39:35.832Z,0.10
2022-08-12T20:41:58.786Z,0.30
2022-08-12T20:44:28.710Z,0.30
2022-08-12T20:46:56.046Z,0.35
2022-08-12T20:49:25.129Z,0.30
2022-08-12T20:51:56.119Z,0.20
2022-08-12T20:57:01.974Z,0.40
2022-08-12T20:59:48.236Z,0.30
2022-08-12T21:02:18.786Z,0.30
2022-08-12T21:05:10.708Z,0.30
2022-08-12T21:07:51.539Z,0.40
2022-08-12T21:10:20.855Z,0.40
2022-08-12T21:12:48.053Z,0.22
2022-08-12T21:15:24.308Z,0.20
2022-08-12T21:18:11.221Z,0.50
2022-08-12T21:20:50.607Z,0.55
2022-08-12T21:23:18.871Z,0.20
2022-08-12T21:25:46.079Z,0.52
2022-08-12T21:28:18.934Z,0.35
2022-08-12T21:31:11.137Z,0.30
2022-08-12T21:33:58.706Z,0.32
2022-08-12T21:36:22.525Z,0.45
2022-08-12T21:39:17.641Z,0.35
2022-08-12T21:41:52.306Z,0.30
2022-08-12T21:44:24.749Z,0.20
2022-08-12T21:47:21.500Z,0.30
2022-08-12T21:49:53.836Z,0.30
2022-08-12T21:52:28.318Z,0.30
2022-08-12T21:55:02.149Z,0.50
2022-08-12T21:57:36.447Z,0.32
2022-08-12T22:00:19.017Z,0.40
2022-08-12T22:03:04.195Z,0.30
2022-08-12T22:05:49.368Z,0.30
2022-08-12T22:08:17.058Z,0.40
2022-08-12T22:10:52.384Z,0.38
2022-08-12T22:14:02.574Z,0.30
2022-08-12T22:16:06.719Z,0.30
2022-08-12T22:18:33.243Z,0.50
2022-08-12T22:20:59.783Z,0.40
2022-08-12T22:23:51.278Z,0.30
2022-08-12T22:26:15.987Z,0.45
2022-08-12T22:29:17.241Z,0.40
2022-08-12T22:31:45.875Z,0.70
2022-08-12T22:34:18.341Z,0.40
2022-08-12T22:36:45.733Z,0.50
2022-08-12T22:39:15.699Z,0.50
2022-08-12T22:42:01.779Z,0.50
2022-08-12T22:44:54.086Z,0.40
2022-08-12T22:47:53.736Z,0.30
2022-08-12T22:50:26.883Z,0.30
2022-08-12T22:53:14.922Z,0.40
2022-08-12T22:56:06.078Z,0.35
2022-08-12T22:58:33.352Z,0.40
2022-08-12T23:01:02.175Z,0.25
2022-08-12T23:03:47.652Z,0.40
2022-08-12T23:06:19.825Z,0.40
2022-08-12T23:08:47.958Z,0.40
2022-08-12T23:11:14.982Z,0.52
2022-08-12T23:13:55.433Z,0.68
2022-08-12T23:16:31.488Z,0.35
2022-08-12T23:19:18.184Z,0.30
2022-08-12T23:22:05.764Z,0.60
2022-08-12T23:27:50.448Z,0.40
2022-08-12T23:30:25.184Z,0.50
2022-08-12T23:33:00.722Z,0.40
2022-08-12T23:35:28.431Z,0.50
2022-08-12T23:38:30.380Z,0.50
2022-08-12T23:40:58.179Z,0.43
2022-08-12T23:43:25.549Z,0.70
2022-08-12T23:46:01.018Z,0.30
2022-08-12T23:48:31.306Z,0.50
2022-08-12T23:51:01.170Z,0.53
2022-08-12T23:53:32.446Z,0.57
2022-08-12T23:55:59.580Z,0.73
2022-08-12T23:58:28.253Z,0.70
